sensor_id;sensor_type;location;lat;lon;timestamp;pressure;altitude;pressure_sealevel;temperature;humidity
13027;BME280;6580;42.680;23.324;2023-07-02T00:02:33;94595.41;;;21.11;100.00
13027;BME280;6580;42.680;23.324;2023-07-02T00:05:18;94601.75;;;21.05;100.00
13027;BME280;6580;42.680;23.324;2023-07-02T00:08:10;94606.13;;;21.17;100.00
13027;BME280;6580;42.680;23.324;2023-07-02T00:10:57;94600.13;;;21.04;100.00
13027;BME280;6580;42.680;23.324;2023-07-02T00:13:44;94597.19;;;20.82;100.00
13027;BME280;6580;42.680;23.324;2023-07-02T00:16:29;94586.41;;;20.76;100.00
13027;BME280;6580;42.680;23.324;2023-07-02T00:19:15;94592.56;;;20.83;100.00
13027;BME280;6580;42.680;23.324;2023-07-02T00:22:04;94589.63;;;20.73;100.00
13027;BME280;6580;42.680;23.324;2023-07-02T00:24:49;94591.13;;;20.69;100.00
13027;BME280;6580;42.680;23.324;2023-07-02T00:27:37;94592.53;;;20.60;100.00
13027;BME280;6580;42.680;23.324;2023-07-02T00:30:22;94597.94;;;20.60;100.00
13027;BME280;6580;42.680;23.324;2023-07-02T00:33:08;94603.16;;;20.73;100.00
13027;BME280;6580;42.680;23.324;2023-07-02T00:35:54;94609.63;;;20.72;100.00
13027;BME280;6580;42.680;23.324;2023-07-02T00:38:41;94605.38;;;20.64;100.00
13027;BME280;6580;42.680;23.324;2023-07-02T00:41:30;94603.41;;;20.83;100.00
13027;BME280;6580;42.680;23.324;2023-07-02T00:44:18;94601.03;;;20.86;100.00
13027;BME280;6580;42.680;23.324;2023-07-02T00:47:04;94610.81;;;20.99;100.00
13027;BME280;6580;42.680;23.324;2023-07-02T00:49:51;94613.41;;;20.94;100.00
13027;BME280;6580;42.680;23.324;2023-07-02T00:52:37;94620.38;;;20.90;100.00
13027;BME280;6580;42.680;23.324;2023-07-02T00:55:25;94617.16;;;20.93;100.00
13027;BME280;6580;42.680;23.324;2023-07-02T00:58:12;94611.47;;;20.71;100.00
13027;BME280;6580;42.680;23.324;2023-07-02T01:01:01;94607.50;;;20.85;100.00
13027;BME280;6580;42.680;23.324;2023-07-02T01:03:56;94606.06;;;20.60;100.00
13027;BME280;6580;42.680;23.324;2023-07-02T01:06:44;94601.47;;;20.49;100.00
13027;BME280;6580;42.680;23.324;2023-07-02T01:09:30;94599.19;;;20.35;100.00
13027;BME280;6580;42.680;23.324;2023-07-02T01:12:17;94615.94;;;20.54;100.00
13027;BME280;6580;42.680;23.324;2023-07-02T01:15:06;94609.31;;;20.39;100.00
13027;BME280;6580;42.680;23.324;2023-07-02T01:17:55;94611.25;;;20.61;100.00
13027;BME280;6580;42.680;23.324;2023-07-02T01:20:44;94605.59;;;20.63;100.00
13027;BME280;6580;42.680;23.324;2023-07-02T01:23:34;94610.69;;;20.71;100.00
13027;BME280;6580;42.680;23.324;2023-07-02T01:26:20;94606.72;;;20.85;100.00
13027;BME280;6580;42.680;23.324;2023-07-02T01:29:16;94596.06;;;20.49;100.00
13027;BME280;6580;42.680;23.324;2023-07-02T01:32:02;94572.16;;;20.35;100.00
13027;BME280;6580;42.680;23.324;2023-07-02T01:34:49;94579.31;;;20.29;100.00
13027;BME280;6580;42.680;23.324;2023-07-02T01:37:41;94590.56;;;20.15;100.00
13027;BME280;6580;42.680;23.324;2023-07-02T01:40:28;94585.63;;;19.94;100.00
13027;BME280;6580;42.680;23.324;2023-07-02T01:43:14;94577.03;;;20.15;100.00
13027;BME280;6580;42.680;23.324;2023-07-02T01:46:04;94586.72;;;20.34;100.00
13027;BME280;6580;42.680;23.324;2023-07-02T01:48:50;94599.28;;;20.17;100.00
13027;BME280;6580;42.680;23.324;2023-07-02T01:51:36;94592.78;;;20.06;100.00
13027;BME280;6580;42.680;23.324;2023-07-02T01:54:24;94592.00;;;20.17;100.00
13027;BME280;6580;42.680;23.324;2023-07-02T01:57:12;94588.63;;;20.33;100.00
13027;BME280;6580;42.680;23.324;2023-07-02T01:59:58;94609.28;;;20.16;100.00
13027;BME280;6580;42.680;23.324;2023-07-02T02:02:47;94580.09;;;20.07;100.00
13027;BME280;6580;42.680;23.324;2023-07-02T02:05:35;94574.78;;;20.00;100.00
13027;BME280;6580;42.680;23.324;2023-07-02T02:08:22;94565.53;;;20.08;100.00
13027;BME280;6580;42.680;23.324;2023-07-02T02:11:09;94570.81;;;20.14;100.00
13027;BME280;6580;42.680;23.324;2023-07-02T02:13:56;94587.81;;;20.03;100.00
13027;BME280;6580;42.680;23.324;2023-07-02T02:16:46;94580.72;;;19.91;100.00
13027;BME280;6580;42.680;23.324;2023-07-02T02:19:32;94586.66;;;19.99;100.00
13027;BME280;6580;42.680;23.324;2023-07-02T02:22:21;94587.47;;;20.00;100.00
13027;BME280;6580;42.680;23.324;2023-07-02T02:25:07;94586.38;;;19.71;100.00
13027;BME280;6580;42.680;23.324;2023-07-02T02:27:55;94578.44;;;19.76;100.00
13027;BME280;6580;42.680;23.324;2023-07-02T02:30:40;94578.97;;;19.96;100.00
13027;BME280;6580;42.680;23.324;2023-07-02T02:33:26;94562.66;;;19.73;100.00
13027;BME280;6580;42.680;23.324;2023-07-02T02:36:11;94569.41;;;19.94;100.00
13027;BME280;6580;42.680;23.324;2023-07-02T02:39:00;94572.63;;;19.91;100.00
13027;BME280;6580;42.680;23.324;2023-07-02T02:41:50;94567.25;;;19.73;100.00
13027;BME280;6580;42.680;23.324;2023-07-02T02:44:38;94570.88;;;19.67;100.00
13027;BME280;6580;42.680;23.324;2023-07-02T02:47:23;94558.81;;;19.81;100.00
13027;BME280;6580;42.680;23.324;2023-07-02T02:50:12;94556.59;;;19.60;100.00
13027;BME280;6580;42.680;23.324;2023-07-02T02:52:58;94572.78;;;19.31;100.00
13027;BME280;6580;42.680;23.324;2023-07-02T02:55:44;94563.34;;;19.40;100.00
13027;BME280;6580;42.680;23.324;2023-07-02T02:58:29;94585.63;;;19.35;100.00
13027;BME280;6580;42.680;23.324;2023-07-02T03:01:23;94598.28;;;19.17;100.00
13027;BME280;6580;42.680;23.324;2023-07-02T03:04:15;94573.47;;;19.26;100.00
13027;BME280;6580;42.680;23.324;2023-07-02T03:07:02;94575.44;;;19.66;100.00
13027;BME280;6580;42.680;23.324;2023-07-02T03:09:48;94580.56;;;19.56;100.00
13027;BME280;6580;42.680;23.324;2023-07-02T03:12:34;94569.25;;;19.77;100.00
13027;BME280;6580;42.680;23.324;2023-07-02T03:15:21;94577.31;;;19.95;100.00
13027;BME280;6580;42.680;23.324;2023-07-02T03:18:13;94567.50;;;19.83;100.00
13027;BME280;6580;42.680;23.324;2023-07-02T03:20:59;94568.91;;;19.74;100.00
13027;BME280;6580;42.680;23.324;2023-07-02T03:23:46;94566.22;;;20.15;100.00
13027;BME280;6580;42.680;23.324;2023-07-02T03:26:32;94577.16;;;20.08;100.00
13027;BME280;6580;42.680;23.324;2023-07-02T03:29:18;94589.88;;;20.19;100.00
13027;BME280;6580;42.680;23.324;2023-07-02T03:32:05;94591.78;;;20.30;100.00
13027;BME280;6580;42.680;23.324;2023-07-02T03:34:53;94589.22;;;20.35;100.00
13027;BME280;6580;42.680;23.324;2023-07-02T03:37:41;94587.28;;;20.24;100.00
13027;BME280;6580;42.680;23.324;2023-07-02T03:40:31;94592.09;;;20.22;100.00
13027;BME280;6580;42.680;23.324;2023-07-02T03:43:17;94593.09;;;20.39;100.00
13027;BME280;6580;42.680;23.324;2023-07-02T03:46:04;94601.28;;;20.21;100.00
13027;BME280;6580;42.680;23.324;2023-07-02T03:48:49;94586.41;;;20.42;100.00
13027;BME280;6580;42.680;23.324;2023-07-02T03:51:36;94570.53;;;20.56;100.00
13027;BME280;6580;42.680;23.324;2023-07-02T03:54:22;94582.06;;;20.52;100.00
13027;BME280;6580;42.680;23.324;2023-07-02T03:57:08;94580.81;;;20.25;100.00
13027;BME280;6580;42.680;23.324;2023-07-02T03:59:54;94570.03;;;20.37;100.00
13027;BME280;6580;42.680;23.324;2023-07-02T04:02:41;94586.84;;;20.27;100.00
13027;BME280;6580;42.680;23.324;2023-07-02T04:05:27;94594.00;;;20.22;100.00
13027;BME280;6580;42.680;23.324;2023-07-02T04:08:14;94591.88;;;20.24;100.00
13027;BME280;6580;42.680;23.324;2023-07-02T04:11:02;94581.88;;;20.24;100.00
13027;BME280;6580;42.680;23.324;2023-07-02T04:13:47;94585.81;;;20.40;100.00
13027;BME280;6580;42.680;23.324;2023-07-02T04:16:33;94597.94;;;20.60;100.00
13027;BME280;6580;42.680;23.324;2023-07-02T04:19:18;94601.09;;;20.57;100.00
13027;BME280;6580;42.680;23.324;2023-07-02T04:22:06;94592.75;;;20.47;100.00
13027;BME280;6580;42.680;23.324;2023-07-02T04:24:53;94610.22;;;20.74;100.00
13027;BME280;6580;42.680;23.324;2023-07-02T04:27:41;94614.19;;;20.60;100.00
13027;BME280;6580;42.680;23.324;2023-07-02T04:30:26;94614.88;;;20.55;100.00
13027;BME280;6580;42.680;23.324;2023-07-02T04:33:12;94627.38;;;20.68;100.00
13027;BME280;6580;42.680;23.324;2023-07-02T04:35:59;94631.72;;;20.69;100.00
13027;BME280;6580;42.680;23.324;2023-07-02T04:38:44;94626.41;;;20.51;100.00
13027;BME280;6580;42.680;23.324;2023-07-02T04:41:31;94641.00;;;20.50;100.00
13027;BME280;6580;42.680;23.324;2023-07-02T04:44:16;94650.31;;;20.54;100.00
13027;BME280;6580;42.680;23.324;2023-07-02T04:47:02;94652.28;;;20.47;100.00
13027;BME280;6580;42.680;23.324;2023-07-02T04:49:49;94649.88;;;20.39;100.00
13027;BME280;6580;42.680;23.324;2023-07-02T04:52:35;94654.38;;;20.45;100.00
13027;BME280;6580;42.680;23.324;2023-07-02T04:55:22;94661.97;;;20.66;100.00
13027;BME280;6580;42.680;23.324;2023-07-02T04:58:11;94658.78;;;20.69;100.00
13027;BME280;6580;42.680;23.324;2023-07-02T05:00:57;94655.31;;;20.80;100.00
13027;BME280;6580;42.680;23.324;2023-07-02T05:03:47;94649.66;;;20.93;100.00
13027;BME280;6580;42.680;23.324;2023-07-02T05:06:35;94653.69;;;21.02;100.00
13027;BME280;6580;42.680;23.324;2023-07-02T05:09:21;94662.03;;;21.23;100.00
13027;BME280;6580;42.680;23.324;2023-07-02T05:12:07;94654.13;;;20.99;100.00
13027;BME280;6580;42.680;23.324;2023-07-02T05:14:53;94656.13;;;21.15;100.00
13027;BME280;6580;42.680;23.324;2023-07-02T05:17:39;94667.94;;;21.09;100.00
13027;BME280;6580;42.680;23.324;2023-07-02T05:20:25;94664.16;;;21.10;100.00
13027;BME280;6580;42.680;23.324;2023-07-02T05:23:11;94667.94;;;21.09;100.00
13027;BME280;6580;42.680;23.324;2023-07-02T05:25:57;94658.25;;;21.24;100.00
13027;BME280;6580;42.680;23.324;2023-07-02T05:28:43;94660.84;;;21.31;100.00
13027;BME280;6580;42.680;23.324;2023-07-02T05:31:31;94659.91;;;21.14;100.00
13027;BME280;6580;42.680;23.324;2023-07-02T05:34:18;94662.28;;;21.22;100.00
13027;BME280;6580;42.680;23.324;2023-07-02T05:37:08;94660.75;;;21.26;100.00
13027;BME280;6580;42.680;23.324;2023-07-02T05:39:53;94659.69;;;21.15;100.00
13027;BME280;6580;42.680;23.324;2023-07-02T05:42:41;94668.50;;;21.22;100.00
13027;BME280;6580;42.680;23.324;2023-07-02T05:45:28;94679.47;;;21.27;100.00
13027;BME280;6580;42.680;23.324;2023-07-02T05:48:15;94672.84;;;21.35;100.00
13027;BME280;6580;42.680;23.324;2023-07-02T05:51:00;94671.09;;;21.40;100.00
13027;BME280;6580;42.680;23.324;2023-07-02T05:53:45;94674.03;;;21.50;100.00
13027;BME280;6580;42.680;23.324;2023-07-02T05:56:31;94674.25;;;21.83;100.00
13027;BME280;6580;42.680;23.324;2023-07-02T05:59:16;94679.16;;;22.37;100.00
13027;BME280;6580;42.680;23.324;2023-07-02T06:02:03;94661.50;;;22.51;100.00
13027;BME280;6580;42.680;23.324;2023-07-02T06:04:50;94663.88;;;22.47;100.00
13027;BME280;6580;42.680;23.324;2023-07-02T06:07:35;94657.50;;;22.69;100.00
13027;BME280;6580;42.680;23.324;2023-07-02T06:10:20;94647.75;;;23.56;96.19
13027;BME280;6580;42.680;23.324;2023-07-02T06:13:06;94656.34;;;23.48;95.17
13027;BME280;6580;42.680;23.324;2023-07-02T06:15:52;94651.03;;;23.74;93.49
13027;BME280;6580;42.680;23.324;2023-07-02T06:18:38;94630.41;;;23.40;93.49
13027;BME280;6580;42.680;23.324;2023-07-02T06:21:25;94636.50;;;23.31;95.03
13027;BME280;6580;42.680;23.324;2023-07-02T06:24:13;94638.84;;;23.06;95.51
13027;BME280;6580;42.680;23.324;2023-07-02T06:26:59;94640.25;;;22.92;97.97
13027;BME280;6580;42.680;23.324;2023-07-02T06:29:46;94634.47;;;23.05;96.99
13027;BME280;6580;42.680;23.324;2023-07-02T06:32:31;94628.72;;;22.85;97.18
13027;BME280;6580;42.680;23.324;2023-07-02T06:35:17;94629.78;;;23.17;96.87
13027;BME280;6580;42.680;23.324;2023-07-02T06:38:06;94628.22;;;23.37;93.52
13027;BME280;6580;42.680;23.324;2023-07-02T06:40:53;94637.34;;;23.31;94.28
13027;BME280;6580;42.680;23.324;2023-07-02T06:43:41;94634.66;;;23.15;94.95
13027;BME280;6580;42.680;23.324;2023-07-02T06:46:27;94633.47;;;23.27;94.60
13027;BME280;6580;42.680;23.324;2023-07-02T06:49:12;94633.28;;;23.50;93.04
13027;BME280;6580;42.680;23.324;2023-07-02T06:51:59;94606.78;;;23.62;91.47
13027;BME280;6580;42.680;23.324;2023-07-02T06:54:47;94614.47;;;24.08;89.29
13027;BME280;6580;42.680;23.324;2023-07-02T06:57:33;94618.63;;;23.94;90.13
13027;BME280;6580;42.680;23.324;2023-07-02T07:00:18;94629.81;;;23.55;94.34
13027;BME280;6580;42.680;23.324;2023-07-02T07:03:05;94641.38;;;23.83;94.33
13027;BME280;6580;42.680;23.324;2023-07-02T07:05:51;94639.38;;;24.69;86.90
13027;BME280;6580;42.680;23.324;2023-07-02T07:08:37;94629.91;;;25.08;82.62
13027;BME280;6580;42.680;23.324;2023-07-02T07:11:25;94634.81;;;25.78;79.74
13027;BME280;6580;42.680;23.324;2023-07-02T07:14:11;94630.38;;;25.73;79.21
13027;BME280;6580;42.680;23.324;2023-07-02T07:16:57;94630.41;;;25.77;75.26
13027;BME280;6580;42.680;23.324;2023-07-02T07:19:42;94612.75;;;25.49;77.06
13027;BME280;6580;42.680;23.324;2023-07-02T07:22:28;94627.81;;;25.51;77.19
13027;BME280;6580;42.680;23.324;2023-07-02T07:25:13;94626.13;;;25.45;77.45
13027;BME280;6580;42.680;23.324;2023-07-02T07:28:00;94625.28;;;25.40;76.71
13027;BME280;6580;42.680;23.324;2023-07-02T07:30:46;94625.19;;;25.30;78.52
13027;BME280;6580;42.680;23.324;2023-07-02T07:33:31;94624.53;;;24.86;79.94
13027;BME280;6580;42.680;23.324;2023-07-02T07:36:17;94618.72;;;24.73;82.31
13027;BME280;6580;42.680;23.324;2023-07-02T07:39:03;94616.75;;;25.00;79.42
13027;BME280;6580;42.680;23.324;2023-07-02T07:41:49;94607.16;;;24.92;79.16
13027;BME280;6580;42.680;23.324;2023-07-02T07:44:36;94624.06;;;24.63;82.88
13027;BME280;6580;42.680;23.324;2023-07-02T07:47:21;94615.31;;;24.61;82.84
13027;BME280;6580;42.680;23.324;2023-07-02T07:50:07;94626.16;;;25.14;78.71
13027;BME280;6580;42.680;23.324;2023-07-02T07:52:55;94618.69;;;26.38;71.96
13027;BME280;6580;42.680;23.324;2023-07-02T07:55:41;94624.06;;;26.13;73.01
13027;BME280;6580;42.680;23.324;2023-07-02T07:58:27;94622.19;;;26.24;72.05
13027;BME280;6580;42.680;23.324;2023-07-02T08:01:14;94621.72;;;25.80;71.92
13027;BME280;6580;42.680;23.324;2023-07-02T08:04:00;94620.38;;;26.49;69.12
13027;BME280;6580;42.680;23.324;2023-07-02T08:06:46;94627.34;;;26.15;70.07
13027;BME280;6580;42.680;23.324;2023-07-02T08:09:31;94629.72;;;26.02;71.61
13027;BME280;6580;42.680;23.324;2023-07-02T08:12:18;94634.31;;;25.91;72.70
13027;BME280;6580;42.680;23.324;2023-07-02T08:15:05;94629.84;;;25.75;74.17
13027;BME280;6580;42.680;23.324;2023-07-02T08:17:52;94631.78;;;26.41;72.35
13027;BME280;6580;42.680;23.324;2023-07-02T08:20:41;94631.03;;;26.56;71.14
13027;BME280;6580;42.680;23.324;2023-07-02T08:23:28;94621.94;;;26.35;72.56
13027;BME280;6580;42.680;23.324;2023-07-02T08:26:14;94613.63;;;28.88;61.60
13027;BME280;6580;42.680;23.324;2023-07-02T08:29:03;94614.09;;;28.51;61.92
13027;BME280;6580;42.680;23.324;2023-07-02T08:31:49;94612.16;;;30.97;54.52
13027;BME280;6580;42.680;23.324;2023-07-02T08:34:36;94608.94;;;31.64;50.40
13027;BME280;6580;42.680;23.324;2023-07-02T08:37:21;94597.25;;;31.53;49.30
13027;BME280;6580;42.680;23.324;2023-07-02T08:40:15;94597.03;;;31.95;48.06
13027;BME280;6580;42.680;23.324;2023-07-02T08:43:02;94598.41;;;32.24;44.37
13027;BME280;6580;42.680;23.324;2023-07-02T08:45:47;94600.44;;;33.08;42.54
13027;BME280;6580;42.680;23.324;2023-07-02T08:48:35;94602.38;;;32.72;42.37
13027;BME280;6580;42.680;23.324;2023-07-02T08:51:23;94598.25;;;31.89;44.39
13027;BME280;6580;42.680;23.324;2023-07-02T08:54:08;94590.50;;;31.78;45.50
13027;BME280;6580;42.680;23.324;2023-07-02T08:56:54;94597.13;;;32.04;44.81
13027;BME280;6580;42.680;23.324;2023-07-02T08:59:41;94591.03;;;31.48;46.53
13027;BME280;6580;42.680;23.324;2023-07-02T09:02:31;94591.13;;;32.69;43.01
13027;BME280;6580;42.680;23.324;2023-07-02T09:05:19;94583.41;;;32.17;45.10
13027;BME280;6580;42.680;23.324;2023-07-02T09:08:05;94584.81;;;32.68;43.41
13027;BME280;6580;42.680;23.324;2023-07-02T09:10:51;94581.13;;;33.08;42.50
13027;BME280;6580;42.680;23.324;2023-07-02T09:13:44;94577.88;;;33.72;40.39
13027;BME280;6580;42.680;23.324;2023-07-02T09:16:31;94584.25;;;34.41;39.67
13027;BME280;6580;42.680;23.324;2023-07-02T09:19:20;94585.31;;;32.70;42.56
13027;BME280;6580;42.680;23.324;2023-07-02T09:22:05;94587.91;;;31.68;43.44
13027;BME280;6580;42.680;23.324;2023-07-02T09:24:53;94578.34;;;31.79;44.35
13027;BME280;6580;42.680;23.324;2023-07-02T09:27:39;94585.63;;;32.28;43.26
13027;BME280;6580;42.680;23.324;2023-07-02T09:30:26;94577.31;;;31.75;44.16
13027;BME280;6580;42.680;23.324;2023-07-02T09:33:12;94576.03;;;31.22;44.95
13027;BME280;6580;42.680;23.324;2023-07-02T09:36:00;94592.19;;;30.73;45.73
13027;BME280;6580;42.680;23.324;2023-07-02T09:38:46;94581.47;;;31.59;44.78
13027;BME280;6580;42.680;23.324;2023-07-02T09:41:33;94575.75;;;32.27;43.20
13027;BME280;6580;42.680;23.324;2023-07-02T09:44:19;94575.22;;;33.89;39.90
13027;BME280;6580;42.680;23.324;2023-07-02T09:47:06;94574.59;;;32.55;41.19
13027;BME280;6580;42.680;23.324;2023-07-02T09:49:54;94573.06;;;32.22;42.81
13027;BME280;6580;42.680;23.324;2023-07-02T09:52:40;94560.25;;;32.80;40.49
13027;BME280;6580;42.680;23.324;2023-07-02T09:55:26;94564.97;;;34.11;39.30
13027;BME280;6580;42.680;23.324;2023-07-02T09:58:13;94570.25;;;34.46;36.92
13027;BME280;6580;42.680;23.324;2023-07-02T10:00:59;94564.34;;;34.78;35.83
13027;BME280;6580;42.680;23.324;2023-07-02T10:03:45;94563.19;;;34.24;37.38
13027;BME280;6580;42.680;23.324;2023-07-02T10:06:30;94555.22;;;33.92;37.23
13027;BME280;6580;42.680;23.324;2023-07-02T10:09:16;94551.03;;;35.48;35.54
13027;BME280;6580;42.680;23.324;2023-07-02T10:12:14;94553.59;;;34.85;35.32
13027;BME280;6580;42.680;23.324;2023-07-02T10:15:01;94557.50;;;34.84;36.75
13027;BME280;6580;42.680;23.324;2023-07-02T10:17:54;94531.63;;;35.06;36.58
13027;BME280;6580;42.680;23.324;2023-07-02T10:20:41;94529.06;;;35.18;35.72
13027;BME280;6580;42.680;23.324;2023-07-02T10:23:33;94532.44;;;34.89;37.40
13027;BME280;6580;42.680;23.324;2023-07-02T10:26:20;94512.44;;;35.89;34.97
13027;BME280;6580;42.680;23.324;2023-07-02T10:29:06;94508.50;;;35.98;34.50
13027;BME280;6580;42.680;23.324;2023-07-02T10:31:56;94513.22;;;36.35;33.44
13027;BME280;6580;42.680;23.324;2023-07-02T10:34:41;94505.13;;;36.22;34.09
13027;BME280;6580;42.680;23.324;2023-07-02T10:37:34;94508.91;;;36.55;34.00
13027;BME280;6580;42.680;23.324;2023-07-02T10:40:23;94510.09;;;36.45;33.66
13027;BME280;6580;42.680;23.324;2023-07-02T10:43:09;94512.63;;;36.30;33.57
13027;BME280;6580;42.680;23.324;2023-07-02T10:45:55;94510.16;;;35.20;34.92
13027;BME280;6580;42.680;23.324;2023-07-02T10:48:50;94528.38;;;33.84;37.34
13027;BME280;6580;42.680;23.324;2023-07-02T10:51:37;94515.09;;;32.01;40.41
13027;BME280;6580;42.680;23.324;2023-07-02T10:54:23;94516.13;;;31.32;41.66
13027;BME280;6580;42.680;23.324;2023-07-02T10:57:09;94510.66;;;31.46;42.62
13027;BME280;6580;42.680;23.324;2023-07-02T11:00:04;94506.84;;;34.03;37.30
13027;BME280;6580;42.680;23.324;2023-07-02T11:02:52;94498.56;;;35.01;35.56
13027;BME280;6580;42.680;23.324;2023-07-02T11:05:41;94493.47;;;36.08;34.02
13027;BME280;6580;42.680;23.324;2023-07-02T11:08:35;94497.78;;;35.09;35.26
13027;BME280;6580;42.680;23.324;2023-07-02T11:11:21;94494.34;;;35.20;35.82
13027;BME280;6580;42.680;23.324;2023-07-02T11:14:07;94506.47;;;34.43;35.73
13027;BME280;6580;42.680;23.324;2023-07-02T11:16:55;94501.88;;;32.65;38.24
13027;BME280;6580;42.680;23.324;2023-07-02T11:19:49;94504.75;;;33.47;37.24
13027;BME280;6580;42.680;23.324;2023-07-02T11:22:41;94493.09;;;33.81;35.91
13027;BME280;6580;42.680;23.324;2023-07-02T11:25:28;94500.50;;;33.72;37.30
13027;BME280;6580;42.680;23.324;2023-07-02T11:28:16;94496.03;;;33.32;36.75
13027;BME280;6580;42.680;23.324;2023-07-02T11:31:02;94501.25;;;32.54;36.06
13027;BME280;6580;42.680;23.324;2023-07-02T11:33:52;94507.84;;;31.64;37.29
13027;BME280;6580;42.680;23.324;2023-07-02T11:36:39;94511.00;;;30.39;43.92
13027;BME280;6580;42.680;23.324;2023-07-02T11:39:30;94524.03;;;30.70;44.86
13027;BME280;6580;42.680;23.324;2023-07-02T11:42:15;94524.59;;;32.84;41.25
13027;BME280;6580;42.680;23.324;2023-07-02T11:45:01;94513.34;;;33.68;39.37
13027;BME280;6580;42.680;23.324;2023-07-02T11:47:48;94508.50;;;34.93;37.46
13027;BME280;6580;42.680;23.324;2023-07-02T11:50:33;94511.34;;;33.38;38.92
13027;BME280;6580;42.680;23.324;2023-07-02T11:53:19;94508.91;;;33.97;38.88
13027;BME280;6580;42.680;23.324;2023-07-02T11:56:06;94510.81;;;35.08;35.98
13027;BME280;6580;42.680;23.324;2023-07-02T11:58:58;94508.00;;;35.42;35.45
13027;BME280;6580;42.680;23.324;2023-07-02T12:01:44;94513.88;;;35.15;33.64
13027;BME280;6580;42.680;23.324;2023-07-02T12:04:33;94512.66;;;34.48;33.79
13027;BME280;6580;42.680;23.324;2023-07-02T12:07:19;94518.72;;;33.21;35.52
13027;BME280;6580;42.680;23.324;2023-07-02T12:10:09;94516.16;;;30.64;39.48
13027;BME280;6580;42.680;23.324;2023-07-02T12:12:58;94539.41;;;30.53;40.91
13027;BME280;6580;42.680;23.324;2023-07-02T12:15:51;94541.34;;;29.64;43.78
13027;BME280;6580;42.680;23.324;2023-07-02T12:18:38;94548.63;;;29.50;45.07
13027;BME280;6580;42.680;23.324;2023-07-02T12:21:25;94540.28;;;29.60;45.33
13027;BME280;6580;42.680;23.324;2023-07-02T12:24:10;94546.50;;;29.13;50.07
13027;BME280;6580;42.680;23.324;2023-07-02T12:26:58;94535.44;;;28.52;58.21
13027;BME280;6580;42.680;23.324;2023-07-02T12:29:46;94556.03;;;28.44;63.00
13027;BME280;6580;42.680;23.324;2023-07-02T12:32:32;94542.50;;;28.09;77.37
13027;BME280;6580;42.680;23.324;2023-07-02T12:35:18;94549.25;;;28.37;85.68
13027;BME280;6580;42.680;23.324;2023-07-02T12:38:03;94548.50;;;28.16;79.36
13027;BME280;6580;42.680;23.324;2023-07-02T12:40:52;94549.31;;;28.22;83.06
13027;BME280;6580;42.680;23.324;2023-07-02T12:43:40;94542.91;;;28.41;89.95
13027;BME280;6580;42.680;23.324;2023-07-02T12:46:27;94546.28;;;28.28;84.30
13027;BME280;6580;42.680;23.324;2023-07-02T12:49:33;94537.38;;;28.51;81.83
13027;BME280;6580;42.680;23.324;2023-07-02T12:52:21;94543.59;;;29.00;75.81
13027;BME280;6580;42.680;23.324;2023-07-02T12:55:07;94542.81;;;29.28;69.34
13027;BME280;6580;42.680;23.324;2023-07-02T12:57:56;94541.75;;;29.24;66.95
13027;BME280;6580;42.680;23.324;2023-07-02T13:00:42;94543.25;;;29.40;68.54
13027;BME280;6580;42.680;23.324;2023-07-02T13:03:30;94532.53;;;29.90;61.92
13027;BME280;6580;42.680;23.324;2023-07-02T13:06:18;94526.94;;;29.95;61.27
13027;BME280;6580;42.680;23.324;2023-07-02T13:09:04;94518.25;;;30.53;58.67
13027;BME280;6580;42.680;23.324;2023-07-02T13:11:49;94524.91;;;30.47;57.67
13027;BME280;6580;42.680;23.324;2023-07-02T13:14:35;94507.47;;;30.57;57.03
13027;BME280;6580;42.680;23.324;2023-07-02T13:17:23;94505.63;;;30.52;53.60
13027;BME280;6580;42.680;23.324;2023-07-02T13:20:14;94505.75;;;29.77;55.63
13027;BME280;6580;42.680;23.324;2023-07-02T13:23:01;94501.63;;;29.80;55.15
13027;BME280;6580;42.680;23.324;2023-07-02T13:25:46;94499.38;;;29.06;53.21
13027;BME280;6580;42.680;23.324;2023-07-02T13:28:33;94497.69;;;28.44;56.05
13027;BME280;6580;42.680;23.324;2023-07-02T13:31:18;94488.28;;;28.11;55.92
13027;BME280;6580;42.680;23.324;2023-07-02T13:34:04;94503.28;;;27.71;57.46
13027;BME280;6580;42.680;23.324;2023-07-02T13:36:51;94490.44;;;27.71;60.63
13027;BME280;6580;42.680;23.324;2023-07-02T13:39:38;94493.09;;;27.86;61.95
13027;BME280;6580;42.680;23.324;2023-07-02T13:42:24;94490.28;;;27.96;62.01
13027;BME280;6580;42.680;23.324;2023-07-02T13:45:10;94486.66;;;28.10;60.50
13027;BME280;6580;42.680;23.324;2023-07-02T13:47:55;94491.81;;;28.17;59.99
13027;BME280;6580;42.680;23.324;2023-07-02T13:50:41;94494.78;;;28.30;61.59
13027;BME280;6580;42.680;23.324;2023-07-02T13:53:28;94503.56;;;28.27;61.07
13027;BME280;6580;42.680;23.324;2023-07-02T13:56:15;94503.84;;;27.58;63.94
13027;BME280;6580;42.680;23.324;2023-07-02T13:59:03;94505.25;;;27.55;66.07
13027;BME280;6580;42.680;23.324;2023-07-02T14:01:49;94511.50;;;27.61;66.45
13027;BME280;6580;42.680;23.324;2023-07-02T14:04:35;94514.34;;;27.21;68.24
13027;BME280;6580;42.680;23.324;2023-07-02T14:07:21;94518.19;;;27.00;68.98
13027;BME280;6580;42.680;23.324;2023-07-02T14:10:07;94517.91;;;26.86;67.43
13027;BME280;6580;42.680;23.324;2023-07-02T14:12:52;94524.19;;;26.42;70.29
13027;BME280;6580;42.680;23.324;2023-07-02T14:15:39;94505.63;;;26.49;70.88
13027;BME280;6580;42.680;23.324;2023-07-02T14:18:25;94507.50;;;26.39;66.69
13027;BME280;6580;42.680;23.324;2023-07-02T14:21:11;94503.94;;;26.28;65.07
13027;BME280;6580;42.680;23.324;2023-07-02T14:23:57;94524.69;;;26.24;70.19
13027;BME280;6580;42.680;23.324;2023-07-02T14:26:43;94527.34;;;25.94;79.02
13027;BME280;6580;42.680;23.324;2023-07-02T14:29:29;94524.31;;;25.25;88.81
13027;BME280;6580;42.680;23.324;2023-07-02T14:32:16;94524.88;;;25.32;91.79
13027;BME280;6580;42.680;23.324;2023-07-02T14:35:03;94524.09;;;25.00;93.46
13027;BME280;6580;42.680;23.324;2023-07-02T14:37:48;94523.53;;;25.39;99.61
13027;BME280;6580;42.680;23.324;2023-07-02T14:40:34;94527.72;;;25.57;95.87